Mc Callsburg, Iowa
Current Conditions -  °F | °C
As of 7:29 AM on Thursday 23 Oct 2014 (Local Time) from KAMW Reporting Station
Light Rain Light Rain  
Wind Chill: 51°   Ceiling: 1000
Heat Index: 51°   Visibility: 3mi
Dew Point: 49°   Wind: 3mph
Humidity: 92%   Direction: 170°S
Pressure: 30.03"   Gusts: NA
Location:  42.1646°N, 93.4047°W
Report Text: KAMW 231229Z AUTO 17003KT 3SM -RA BR BKN010 OVC016 11/09 A3003 RMK AO2 P0036 T01060094
Loading
Personal Weather Stations






























Interactive Weather Map
Tropical Storm Tracking
New forecast layout! Learn more

10-Day Weather Forecast

Advertisements
Track Severe Weather on mobile